KCTY/CTY METAR and TAF weather

Enter ICAO airport designator
Station Type Date Time Source
KCTY METAR 2021/05/14 22:55 UTC NOAA

KCTY 142255Z AUTO 06011KT 10SM SCT060 SCT070 26/13 A3011 RMK AO2 T02570126


Station Type Date Time Source
KCTY Decoded METAR 2021/05/14 22:55 UTC NOAA

CROSS CITY AIRPORT, FL, United States (KCTY) 29-38N 083-06W 12M
May 14, 2021 - 06:55 PM EDT / 2021.05.14 2255 UTC
Wind: from the ENE (060 degrees) at 13 MPH (11 KT):0
Visibility: 10 mile(s):0
Sky conditions: partly cloudy
Temperature: 78.3 F (25.7 C)
Dew Point: 54.7 F (12.6 C)
Relative Humidity: 44%
Pressure (altimeter): 30.11 in. Hg (1019 hPa)
ob: KCTY 142255Z AUTO 06011KT 10SM SCT060 SCT070 26/13 A3011 RMK AO2 T02570126
cycle: 23

Station Type Date Time Source
KCTY TAF UTC NOAA

Error!

Example: see airport list